Time;durP1;ratioP1;P1;durP2;ratioP2;P2;SDS_P1;SDS_P2;PMS_P1;PMS_P2;Temp;Humidity;BMP_temperature;BMP_pressure;BME280_temperature;BME280_humidity;BME280_pressure;Samples;Min_cycle;Max_cycle;Signal;HPM_P1;HPM_P2
2022/10/24 00:00:04;;;;;;;7.20;2.53;;;14.70;99.90;;;;;;5087993;28;20193;-50
2022/10/24 00:02:32;;;;;;;14.23;2.90;;;14.70;99.90;;;;;;5086678;28;20682;-48
2022/10/24 00:04:59;;;;;;;8.07;3.13;;;14.80;99.90;;;;;;5089756;28;20220;-49
2022/10/24 00:07:27;;;;;;;8.33;2.90;;;14.70;99.90;;;;;;5072966;28;20683;-49
2022/10/24 00:09:54;;;;;;;6.33;3.93;;;14.80;99.90;;;;;;5073006;28;20225;-49
2022/10/24 00:12:21;;;;;;;9.17;3.20;;;14.80;99.90;;;;;;5073947;28;20212;-49
2022/10/24 00:14:48;;;;;;;10.43;3.63;;;14.80;99.90;;;;;;5088364;28;20311;-51
2022/10/24 00:17:15;;;;;;;10.73;3.37;;;14.80;99.90;;;;;;5093054;28;20192;-49
2022/10/24 00:19:42;;;;;;;11.20;2.80;;;14.80;99.90;;;;;;5075106;28;20667;-49
2022/10/24 00:22:09;;;;;;;4.87;3.30;;;14.80;99.90;;;;;;5088977;28;20215;-49
2022/10/24 00:24:38;;;;;;;13.43;3.43;;;14.80;99.90;;;;;;5091975;28;20697;-49
2022/10/24 00:27:05;;;;;;;5.10;3.10;;;14.70;99.90;;;;;;5081257;28;20596;-49
2022/10/24 00:29:32;;;;;;;7.47;3.57;;;14.70;99.90;;;;;;5081428;28;20219;-53
2022/10/24 00:31:59;;;;;;;5.47;2.93;;;14.70;99.90;;;;;;5084834;28;20205;-49
2022/10/24 00:34:26;;;;;;;10.57;3.43;;;14.70;99.90;;;;;;5080687;28;20224;-49
2022/10/24 00:36:53;;;;;;;6.13;3.43;;;14.60;99.90;;;;;;5075347;28;20193;-49
2022/10/24 00:39:20;;;;;;;7.87;3.10;;;14.70;99.90;;;;;;5083078;28;20671;-50
2022/10/24 00:41:48;;;;;;;5.50;2.23;;;14.70;99.90;;;;;;5093287;28;20204;-49
2022/10/24 00:44:22;;;;;;;5.47;2.87;;;14.70;99.90;;;;;;5081558;28;20220;-49
2022/10/24 00:46:54;;;;;;;11.30;2.37;;;14.70;99.90;;;;;;5089315;28;20196;-49
2022/10/24 00:49:26;;;;;;;12.07;2.43;;;14.60;99.90;;;;;;5085775;28;20220;-50
2022/10/24 00:51:57;;;;;;;7.13;2.50;;;14.50;99.90;;;;;;5092557;28;20188;-50
2022/10/24 00:54:24;;;;;;;9.10;2.40;;;14.50;99.90;;;;;;5087235;28;20240;-49
2022/10/24 00:57:01;;;;;;;11.50;2.80;;;14.60;99.90;;;;;;5081962;28;20196;-49
2022/10/24 00:59:29;;;;;;;8.10;2.83;;;14.70;99.90;;;;;;5085587;28;20198;-49
2022/10/24 01:01:56;;;;;;;3.87;2.43;;;14.70;99.90;;;;;;5083702;28;20575;-49
2022/10/24 01:04:23;;;;;;;3.57;2.70;;;14.80;99.90;;;;;;5090660;28;20216;-49
2022/10/24 01:07:03;;;;;;;9.33;2.80;;;14.80;99.90;;;;;;5082062;28;20197;-49
2022/10/24 01:09:43;;;;;;;6.17;4.23;;;14.80;99.90;;;;;;5071923;28;20211;-50
2022/10/24 01:12:22;;;;;;;7.67;3.70;;;14.90;99.90;;;;;;5072399;28;20251;-49
2022/10/24 01:14:56;;;;;;;7.43;2.83;;;14.90;99.90;;;;;;5075263;28;20216;-49
2022/10/24 01:17:31;;;;;;;9.77;2.77;;;15.10;99.90;;;;;;5080733;28;20673;-51
2022/10/24 01:20:35;;;;;;;10.70;3.07;;;15.20;99.90;;;;;;5090989;28;20282;-50
2022/10/24 01:23:14;;;;;;;7.50;3.33;;;15.30;99.90;;;;;;5071841;28;20208;-49
2022/10/24 01:25:53;;;;;;;9.10;2.97;;;15.20;99.90;;;;;;5071927;28;20209;-50
2022/10/24 01:28:27;;;;;;;9.90;2.83;;;15.30;99.90;;;;;;5076688;28;20208;-49
2022/10/24 01:31:04;;;;;;;11.13;2.33;;;15.20;99.90;;;;;;5080615;28;20308;-49
2022/10/24 01:33:36;;;;;;;12.33;2.43;;;15.30;99.90;;;;;;5079288;28;20232;-50
2022/10/24 01:36:07;;;;;;;8.27;2.30;;;15.40;99.90;;;;;;5076329;28;20215;-49
2022/10/24 01:38:38;;;;;;;10.50;3.70;;;15.30;99.90;;;;;;5072431;28;20202;-50
2022/10/24 01:41:09;;;;;;;8.87;2.83;;;15.30;99.90;;;;;;5082780;28;20198;-49
2022/10/24 01:43:40;;;;;;;8.93;3.10;;;15.30;99.90;;;;;;5091077;28;20213;-49
2022/10/24 01:46:13;;;;;;;9.63;2.60;;;15.20;99.90;;;;;;5072919;28;20195;-50
2022/10/24 01:48:48;;;;;;;12.07;3.27;;;15.20;99.90;;;;;;5084366;28;20197;-49
2022/10/24 01:51:18;;;;;;;11.13;3.07;;;15.10;99.90;;;;;;5082033;28;20780;-50
2022/10/24 01:53:50;;;;;;;6.20;2.63;;;15.10;99.90;;;;;;5075878;28;20220;-49
2022/10/24 01:56:17;;;;;;;9.83;3.17;;;15.10;99.90;;;;;;5084541;28;20258;-49
2022/10/24 01:58:44;;;;;;;12.07;5.30;;;15.00;99.90;;;;;;5091397;28;20204;-49
2022/10/24 02:01:16;;;;;;;8.73;3.03;;;15.10;99.90;;;;;;5089563;28;20691;-49
2022/10/24 02:03:50;;;;;;;11.60;3.10;;;15.10;99.90;;;;;;5090029;28;20223;-50
2022/10/24 02:06:21;;;;;;;7.47;2.30;;;15.10;99.90;;;;;;5075667;28;20205;-50
2022/10/24 02:08:54;;;;;;;6.30;2.50;;;15.10;99.90;;;;;;5083704;28;20200;-49
2022/10/24 02:11:21;;;;;;;9.10;2.73;;;15.20;99.90;;;;;;5082999;28;20209;-50
2022/10/24 02:13:57;;;;;;;4.77;2.43;;;15.20;99.90;;;;;;5083381;28;20563;-49
2022/10/24 02:16:25;;;;;;;7.00;2.30;;;15.30;99.90;;;;;;5084461;28;20200;-50
2022/10/24 02:18:57;;;;;;;9.50;3.47;;;15.40;99.90;;;;;;5093433;28;20196;-49
2022/10/24 02:21:31;;;;;;;6.73;3.17;;;15.50;99.90;;;;;;5086823;28;20218;-50
2022/10/24 02:24:02;;;;;;;12.10;2.80;;;15.60;99.90;;;;;;5095067;28;20219;-49
2022/10/24 02:26:33;;;;;;;8.27;2.57;;;15.60;99.90;;;;;;5095272;28;20647;-50
2022/10/24 02:29:08;;;;;;;8.40;3.07;;;15.50;99.90;;;;;;5091795;28;20247;-49
2022/10/24 02:31:43;;;;;;;18.83;3.30;;;15.50;99.90;;;;;;5087526;28;20266;-50
2022/10/24 02:34:12;;;;;;;10.17;2.77;;;15.60;99.90;;;;;;5074526;28;20652;-49
2022/10/24 02:36:41;;;;;;;10.60;3.40;;;15.40;99.90;;;;;;5080780;28;20689;-49
2022/10/24 02:39:10;;;;;;;10.47;3.33;;;15.30;99.90;;;;;;5082879;28;20723;-49
2022/10/24 02:41:40;;;;;;;5.53;2.30;;;15.30;99.90;;;;;;5087583;28;20936;-50
2022/10/24 02:44:09;;;;;;;8.90;3.20;;;15.30;99.90;;;;;;5090446;28;20281;-50
2022/10/24 02:46:38;;;;;;;4.77;3.27;;;15.20;99.90;;;;;;5091687;28;20257;-51
2022/10/24 02:49:06;;;;;;;15.47;2.97;;;15.10;99.90;;;;;;5094652;28;20196;-50
2022/10/24 02:51:37;;;;;;;11.83;2.13;;;15.20;99.90;;;;;;5090776;28;20270;-50
2022/10/24 02:54:05;;;;;;;7.47;2.33;;;15.10;99.90;;;;;;5083936;28;20274;-50
2022/10/24 02:56:32;;;;;;;5.93;2.83;;;15.10;99.90;;;;;;5092497;28;20708;-50
2022/10/24 02:58:59;;;;;;;9.17;3.13;;;15.10;99.90;;;;;;5078484;28;20196;-48
2022/10/24 03:01:26;;;;;;;6.47;2.70;;;15.00;99.90;;;;;;5085852;28;20247;-50
2022/10/24 03:03:54;;;;;;;9.23;3.50;;;15.00;99.90;;;;;;5079913;28;20271;-49
2022/10/24 03:06:21;;;;;;;9.30;2.87;;;15.00;99.90;;;;;;5085765;28;20192;-49
2022/10/24 03:08:48;;;;;;;11.20;3.03;;;15.00;99.90;;;;;;5080255;28;20668;-50
2022/10/24 03:11:16;;;;;;;8.97;4.20;;;15.00;99.90;;;;;;5088356;28;20638;-49
2022/10/24 03:13:43;;;;;;;10.77;3.27;;;15.00;99.90;;;;;;5089669;28;20289;-49
2022/10/24 03:16:10;;;;;;;10.40;2.97;;;15.10;99.90;;;;;;5082237;28;20198;-49
2022/10/24 03:18:37;;;;;;;3.87;2.07;;;15.10;99.90;;;;;;5073824;28;20263;-51
2022/10/24 03:21:05;;;;;;;11.77;2.93;;;15.20;99.90;;;;;;5074037;28;20201;-48
2022/10/24 03:23:32;;;;;;;6.80;3.53;;;15.20;99.90;;;;;;5084581;28;20278;-49
2022/10/24 03:26:00;;;;;;;10.03;2.70;;;15.20;99.90;;;;;;5082677;28;20200;-49
2022/10/24 03:28:27;;;;;;;8.13;2.77;;;15.30;99.90;;;;;;5092666;28;20292;-50
2022/10/24 03:30:55;;;;;;;7.50;2.70;;;15.20;99.90;;;;;;5082781;28;20759;-50
2022/10/24 03:33:22;;;;;;;4.50;2.23;;;15.20;99.90;;;;;;5078526;28;20236;-50
2022/10/24 03:35:53;;;;;;;5.47;2.67;;;15.20;99.90;;;;;;5078984;28;20231;-49
2022/10/24 03:38:22;;;;;;;15.40;3.50;;;15.20;99.90;;;;;;5073788;28;20641;-51
2022/10/24 03:40:49;;;;;;;9.67;3.00;;;15.30;99.90;;;;;;5073640;28;20370;-50
2022/10/24 03:43:17;;;;;;;12.53;4.17;;;15.30;99.90;;;;;;5078537;28;20197;-51
2022/10/24 03:45:44;;;;;;;8.67;2.83;;;15.30;99.90;;;;;;5076637;28;20201;-50
2022/10/24 03:48:12;;;;;;;10.57;2.60;;;15.20;99.90;;;;;;5084143;28;20196;-51
2022/10/24 03:50:39;;;;;;;14.30;4.00;;;15.20;99.90;;;;;;5078641;28;20691;-49
2022/10/24 03:53:06;;;;;;;5.47;2.53;;;15.30;99.90;;;;;;5081640;28;20209;-50
2022/10/24 03:55:35;;;;;;;11.20;3.20;;;15.20;99.90;;;;;;5081069;28;20201;-49
2022/10/24 03:58:03;;;;;;;4.37;2.60;;;15.20;99.90;;;;;;5080586;28;20674;-49
2022/10/24 04:00:33;;;;;;;9.20;2.60;;;15.30;99.90;;;;;;5082555;28;20944;-50
2022/10/24 04:03:00;;;;;;;7.23;2.80;;;15.30;99.90;;;;;;5086819;28;20238;-49
2022/10/24 04:05:27;;;;;;;11.27;2.97;;;15.20;99.90;;;;;;5082889;28;20658;-51
2022/10/24 04:07:54;;;;;;;12.93;3.73;;;15.20;99.90;;;;;;5073426;28;20590;-50
2022/10/24 04:10:21;;;;;;;11.43;2.73;;;15.20;99.90;;;;;;5081852;28;20196;-49
2022/10/24 04:12:49;;;;;;;7.53;2.83;;;15.20;99.90;;;;;;5077385;28;20220;-49
2022/10/24 04:15:16;;;;;;;7.27;2.97;;;15.20;99.90;;;;;;5078703;28;20225;-49
2022/10/24 04:17:43;;;;;;;7.93;3.50;;;15.30;99.90;;;;;;5078733;28;20605;-49
2022/10/24 04:20:11;;;;;;;7.10;2.70;;;15.30;99.90;;;;;;5086379;28;20197;-49
2022/10/24 04:22:38;;;;;;;8.07;3.97;;;15.30;99.90;;;;;;5079322;28;20266;-50
2022/10/24 04:25:06;;;;;;;9.97;3.43;;;15.30;99.90;;;;;;5080917;28;20220;-49
2022/10/24 04:27:35;;;;;;;9.27;2.83;;;15.30;99.90;;;;;;5090764;28;20631;-50
2022/10/24 04:30:04;;;;;;;10.33;3.27;;;15.30;99.90;;;;;;5083504;28;20262;-50
2022/10/24 04:32:31;;;;;;;13.27;2.70;;;15.30;99.90;;;;;;5084930;28;20277;-50
2022/10/24 04:34:58;;;;;;;7.27;3.60;;;15.20;99.90;;;;;;5083706;28;20228;-49
2022/10/24 04:37:24;;;;;;;8.20;3.73;;;15.30;99.90;;;;;;5092845;28;20224;-49
2022/10/24 04:39:52;;;;;;;9.60;3.13;;;15.20;99.90;;;;;;5089828;28;20229;-50
2022/10/24 04:42:19;;;;;;;8.47;2.73;;;15.20;99.90;;;;;;5085998;28;20208;-49
2022/10/24 04:44:46;;;;;;;8.20;2.50;;;15.30;99.90;;;;;;5091925;28;20216;-51
2022/10/24 04:47:15;;;;;;;6.23;3.20;;;15.30;99.90;;;;;;5092808;28;20201;-50
2022/10/24 04:49:42;;;;;;;7.50;2.63;;;15.20;99.90;;;;;;5090157;28;20258;-51
2022/10/24 04:52:09;;;;;;;7.67;2.97;;;15.10;99.90;;;;;;5082421;28;20217;-50
2022/10/24 04:54:36;;;;;;;11.40;3.70;;;15.00;99.90;;;;;;5073340;28;20271;-50
2022/10/24 04:57:03;;;;;;;11.63;3.03;;;15.00;99.90;;;;;;5078021;28;20283;-50
2022/10/24 04:59:30;;;;;;;7.57;2.87;;;15.00;99.90;;;;;;5071292;28;20238;-50
2022/10/24 05:01:57;;;;;;;10.27;3.87;;;15.00;99.90;;;;;;5071542;28;20193;-50
2022/10/24 05:04:26;;;;;;;6.50;2.90;;;15.00;99.90;;;;;;5071314;28;20217;-50
2022/10/24 05:06:53;;;;;;;9.50;4.23;;;14.90;99.90;;;;;;5071460;28;20199;-49
2022/10/24 05:09:20;;;;;;;17.20;4.23;;;14.90;99.90;;;;;;5074655;28;20204;-49
2022/10/24 05:11:47;;;;;;;10.10;3.93;;;14.90;99.90;;;;;;5078812;28;20617;-50
2022/10/24 05:14:14;;;;;;;8.00;4.30;;;14.90;99.90;;;;;;5071177;28;20217;-50
2022/10/24 05:16:41;;;;;;;7.63;3.40;;;14.80;99.90;;;;;;5078550;28;20295;-49
2022/10/24 05:19:08;;;;;;;7.53;3.37;;;14.80;99.90;;;;;;5079915;28;20200;-49
2022/10/24 05:21:37;;;;;;;7.37;3.50;;;14.80;99.90;;;;;;5077756;28;20793;-49
2022/10/24 05:24:04;;;;;;;8.03;3.57;;;14.80;99.90;;;;;;5079840;28;20227;-50
2022/10/24 05:26:31;;;;;;;8.37;3.30;;;14.70;99.90;;;;;;5072127;28;20628;-50
2022/10/24 05:28:58;;;;;;;9.27;3.80;;;14.70;99.90;;;;;;5070954;28;20617;-50
2022/10/24 05:31:26;;;;;;;6.73;4.00;;;14.70;99.90;;;;;;5070992;28;21011;-50
2022/10/24 05:33:53;;;;;;;6.93;4.77;;;14.70;99.90;;;;;;5071521;28;20643;-50
2022/10/24 05:36:20;;;;;;;8.73;3.13;;;14.60;99.90;;;;;;5081300;28;20189;-50
2022/10/24 05:38:51;;;;;;;8.43;3.43;;;14.70;99.90;;;;;;5070855;28;20659;-49
2022/10/24 05:41:18;;;;;;;7.90;3.20;;;14.70;99.90;;;;;;5080018;28;20228;-50
2022/10/24 05:43:45;;;;;;;5.70;2.63;;;14.70;99.90;;;;;;5085622;28;20269;-49
2022/10/24 05:46:12;;;;;;;8.80;3.20;;;14.70;99.90;;;;;;5070668;28;20258;-50
2022/10/24 05:48:39;;;;;;;12.43;4.10;;;14.70;99.90;;;;;;5085245;28;20196;-51
2022/10/24 05:51:06;;;;;;;11.43;5.20;;;14.70;99.90;;;;;;5076856;28;20254;-50
2022/10/24 05:53:33;;;;;;;10.67;4.00;;;14.70;99.90;;;;;;5086137;28;20220;-50
2022/10/24 05:56:01;;;;;;;7.23;3.27;;;14.70;99.90;;;;;;5085478;28;20212;-51
2022/10/24 05:58:28;;;;;;;11.30;3.40;;;14.80;99.90;;;;;;5074544;28;20245;-50
2022/10/24 06:00:55;;;;;;;9.47;3.60;;;14.80;99.90;;;;;;5072763;28;20254;-50
2022/10/24 06:03:23;;;;;;;9.47;2.97;;;14.90;99.90;;;;;;5070633;28;20644;-50
2022/10/24 06:05:50;;;;;;;10.80;4.33;;;15.00;99.90;;;;;;5076330;28;20202;-51
2022/10/24 06:08:17;;;;;;;8.63;3.70;;;14.90;99.90;;;;;;5079279;28;20658;-49
2022/10/24 06:10:47;;;;;;;9.57;3.50;;;15.00;99.90;;;;;;5086722;28;20616;-50
2022/10/24 06:13:16;;;;;;;9.93;3.77;;;14.90;99.90;;;;;;5073600;28;20220;-49
2022/10/24 06:15:43;;;;;;;4.70;3.93;;;14.90;99.90;;;;;;5086499;28;20255;-49
2022/10/24 06:18:10;;;;;;;10.57;5.40;;;14.80;99.90;;;;;;5089363;28;20204;-50
2022/10/24 06:20:38;;;;;;;9.93;4.90;;;14.80;99.90;;;;;;5072597;28;20446;-49
2022/10/24 06:23:05;;;;;;;16.37;6.70;;;14.80;99.90;;;;;;5087605;28;20739;-50
2022/10/24 06:25:32;;;;;;;10.53;4.97;;;14.90;99.90;;;;;;5089396;28;20199;-49
2022/10/24 06:27:59;;;;;;;9.43;6.40;;;14.90;99.90;;;;;;5089060;28;20201;-49
2022/10/24 06:30:28;;;;;;;8.00;4.30;;;14.80;99.90;;;;;;5081104;28;20605;-50
2022/10/24 06:32:55;;;;;;;9.80;4.20;;;14.90;99.90;;;;;;5080612;28;20246;-49
2022/10/24 06:35:22;;;;;;;8.10;4.20;;;14.90;99.90;;;;;;5073016;28;21336;-49
2022/10/24 06:37:49;;;;;;;14.33;4.07;;;15.00;99.90;;;;;;5081313;28;20258;-50
2022/10/24 06:40:16;;;;;;;5.67;3.83;;;15.00;99.90;;;;;;5081751;28;20204;-50
2022/10/24 06:42:43;;;;;;;10.07;4.43;;;14.90;99.90;;;;;;5075470;28;20197;-49
2022/10/24 06:45:11;;;;;;;9.50;4.13;;;14.90;99.90;;;;;;5077641;28;20261;-49
2022/10/24 06:47:39;;;;;;;10.90;4.53;;;14.80;99.90;;;;;;5084057;28;20196;-49
2022/10/24 06:50:07;;;;;;;14.43;6.43;;;14.80;99.90;;;;;;5085096;28;20201;-50
2022/10/24 06:52:35;;;;;;;6.60;4.20;;;14.80;99.90;;;;;;5075001;28;20216;-50
2022/10/24 06:55:03;;;;;;;12.30;7.47;;;14.90;99.90;;;;;;5073782;28;20221;-49
2022/10/24 06:57:30;;;;;;;9.47;6.07;;;14.80;99.90;;;;;;5074863;28;20201;-50
2022/10/24 06:59:57;;;;;;;6.33;4.63;;;14.80;99.90;;;;;;5085809;28;20209;-49
2022/10/24 07:02:23;;;;;;;6.90;4.47;;;14.80;99.90;;;;;;5086537;28;20658;-49
2022/10/24 07:04:52;;;;;;;9.30;5.07;;;14.80;99.90;;;;;;5086952;28;20220;-51
2022/10/24 07:07:21;;;;;;;8.30;4.67;;;14.80;99.90;;;;;;5082673;28;20205;-50
2022/10/24 07:09:53;;;;;;;13.77;5.50;;;14.50;99.90;;;;;;5090053;28;20247;-49
2022/10/24 07:12:20;;;;;;;11.63;4.90;;;14.70;99.90;;;;;;5087923;28;20690;-50
2022/10/24 07:14:47;;;;;;;10.97;6.40;;;14.70;99.90;;;;;;5075229;28;20772;-49
2022/10/24 07:17:14;;;;;;;18.93;8.90;;;14.60;99.90;;;;;;5084978;28;20287;-49
2022/10/24 07:19:41;;;;;;;11.30;6.70;;;14.70;99.90;;;;;;5085110;28;20201;-48
2022/10/24 07:22:10;;;;;;;9.03;5.87;;;14.80;99.90;;;;;;5091807;28;20247;-50
2022/10/24 07:24:37;;;;;;;12.23;6.17;;;14.80;99.90;;;;;;5084910;28;20282;-49
2022/10/24 07:27:04;;;;;;;14.80;6.50;;;14.80;99.90;;;;;;5084948;28;20254;-50
2022/10/24 07:29:31;;;;;;;8.97;5.37;;;14.80;99.90;;;;;;5082687;28;20593;-49
2022/10/24 07:31:58;;;;;;;10.07;5.23;;;14.80;99.90;;;;;;5091151;28;20209;-50
2022/10/24 07:34:25;;;;;;;15.23;5.97;;;14.70;99.90;;;;;;5085368;28;20312;-49
2022/10/24 07:36:52;;;;;;;9.80;6.70;;;14.80;99.90;;;;;;5086728;28;20229;-49
2022/10/24 07:39:21;;;;;;;15.40;6.07;;;14.80;99.90;;;;;;5073860;28;20391;-50
2022/10/24 07:41:48;;;;;;;14.30;6.87;;;14.80;99.90;;;;;;5083137;28;20197;-49
2022/10/24 07:44:15;;;;;;;9.97;6.23;;;14.80;99.90;;;;;;5074552;28;20221;-49
2022/10/24 07:46:42;;;;;;;8.30;6.00;;;14.80;99.90;;;;;;5089353;28;20200;-49
2022/10/24 07:49:10;;;;;;;9.27;4.97;;;14.90;99.90;;;;;;5092744;28;20669;-49
2022/10/24 07:51:37;;;;;;;10.10;5.03;;;14.90;99.90;;;;;;5077808;28;20617;-50
2022/10/24 07:54:04;;;;;;;9.40;4.67;;;14.90;99.90;;;;;;5093229;28;20274;-50
2022/10/24 07:56:33;;;;;;;7.83;4.17;;;14.90;99.90;;;;;;5093710;28;20200;-50
2022/10/24 07:59:01;;;;;;;6.73;5.83;;;14.90;99.90;;;;;;5093232;28;20204;-51
2022/10/24 08:01:29;;;;;;;5.93;5.00;;;14.90;99.90;;;;;;5093394;28;20265;-51
2022/10/24 08:03:56;;;;;;;8.37;3.97;;;14.90;99.90;;;;;;5081494;28;20220;-48
2022/10/24 08:06:26;;;;;;;8.33;5.10;;;14.90;99.90;;;;;;5085099;28;20482;-48
2022/10/24 08:08:53;;;;;;;11.13;4.67;;;14.90;99.90;;;;;;5082985;28;20193;-49
2022/10/24 08:11:22;;;;;;;8.50;4.83;;;14.90;99.90;;;;;;5084803;28;20192;-50
2022/10/24 08:13:55;;;;;;;8.53;4.63;;;14.90;99.90;;;;;;5092928;28;20655;-50
2022/10/24 08:16:24;;;;;;;14.47;9.03;;;14.90;99.90;;;;;;5093481;28;20208;-50
2022/10/24 08:18:52;;;;;;;8.97;5.93;;;15.00;99.90;;;;;;5092452;28;20205;-50
2022/10/24 08:21:21;;;;;;;9.53;5.47;;;15.00;99.90;;;;;;5079019;28;20269;-50
2022/10/24 08:23:53;;;;;;;8.67;5.33;;;15.00;99.90;;;;;;5081889;28;20259;-50
2022/10/24 08:26:22;;;;;;;7.07;5.43;;;14.90;99.90;;;;;;5083490;28;20196;-48
2022/10/24 08:28:52;;;;;;;12.57;6.27;;;14.90;99.90;;;;;;5074564;28;20197;-50
2022/10/24 08:31:20;;;;;;;8.43;4.50;;;14.90;99.90;;;;;;5081056;28;20197;-50
2022/10/24 08:33:48;;;;;;;7.63;5.53;;;14.80;99.90;;;;;;5090674;28;20274;-49
2022/10/24 08:36:19;;;;;;;14.70;5.63;;;14.80;99.90;;;;;;5092953;28;20696;-52
2022/10/24 08:38:50;;;;;;;11.83;5.90;;;14.70;99.90;;;;;;5089695;28;20226;-49
2022/10/24 08:41:25;;;;;;;11.13;6.90;;;14.80;99.90;;;;;;5080410;28;20254;-51
2022/10/24 08:43:54;;;;;;;14.13;6.80;;;14.70;99.90;;;;;;5083736;28;20217;-50
2022/10/24 08:46:35;;;;;;;8.60;5.27;;;14.70;99.90;;;;;;5092532;28;20249;-49
2022/10/24 08:49:10;;;;;;;10.93;6.93;;;14.80;99.90;;;;;;5092623;28;20261;-50
2022/10/24 08:51:42;;;;;;;15.90;6.47;;;14.90;99.90;;;;;;5083430;28;20207;-49
2022/10/24 08:54:13;;;;;;;7.53;6.37;;;14.90;99.90;;;;;;5083211;28;20221;-50
2022/10/24 08:56:40;;;;;;;11.90;7.10;;;14.90;99.90;;;;;;5083124;28;20619;-49
2022/10/24 08:59:11;;;;;;;11.67;6.20;;;14.90;99.90;;;;;;5084421;28;20616;-49
2022/10/24 09:01:44;;;;;;;10.63;6.23;;;15.10;99.90;;;;;;5082144;28;20205;-50
2022/10/24 09:04:14;;;;;;;15.73;7.30;;;15.20;99.90;;;;;;5071626;28;20270;-50
2022/10/24 09:06:42;;;;;;;13.97;6.43;;;15.20;99.90;;;;;;5072314;28;20201;-50
2022/10/24 09:09:17;;;;;;;9.60;5.70;;;15.30;99.90;;;;;;5074276;28;20197;-50
2022/10/24 09:11:49;;;;;;;10.50;8.40;;;15.30;99.90;;;;;;5082477;28;20196;-51
2022/10/24 09:14:20;;;;;;;9.03;6.70;;;15.30;99.90;;;;;;5091306;28;20220;-51
2022/10/24 09:16:51;;;;;;;7.43;5.60;;;15.30;99.90;;;;;;5090213;28;20259;-49
2022/10/24 09:19:21;;;;;;;7.93;5.37;;;15.20;99.90;;;;;;5086052;28;20247;-50
2022/10/24 09:21:49;;;;;;;9.13;5.43;;;15.20;99.90;;;;;;5071954;28;20197;-50
2022/10/24 09:24:28;;;;;;;9.10;4.90;;;15.20;99.90;;;;;;5071431;28;20217;-51
2022/10/24 09:26:55;;;;;;;7.13;5.63;;;15.20;99.90;;;;;;5074471;28;20297;-50
2022/10/24 09:29:32;;;;;;;9.67;5.80;;;15.20;99.90;;;;;;5081177;28;20196;-50
2022/10/24 09:32:00;;;;;;;7.47;6.60;;;15.10;99.90;;;;;;5083339;28;20811;-51
2022/10/24 09:34:27;;;;;;;6.03;4.20;;;15.10;99.90;;;;;;5091403;28;20280;-51
2022/10/24 09:36:54;;;;;;;10.00;5.53;;;15.20;99.90;;;;;;5091828;28;20245;-50
2022/10/24 09:39:27;;;;;;;8.13;6.80;;;15.10;99.90;;;;;;5083706;28;20246;-51
2022/10/24 09:41:55;;;;;;;5.47;4.87;;;15.10;99.90;;;;;;5090811;28;20196;-51
2022/10/24 09:44:36;;;;;;;7.63;4.33;;;15.10;99.90;;;;;;5091587;28;20224;-50
2022/10/24 09:47:05;;;;;;;6.57;3.97;;;15.10;99.90;;;;;;5089871;28;20250;-51
2022/10/24 09:49:35;;;;;;;6.90;4.67;;;15.00;99.90;;;;;;5087578;28;20201;-50
2022/10/24 09:52:08;;;;;;;7.33;5.07;;;15.00;99.90;;;;;;5086959;28;20204;-49
2022/10/24 09:54:36;;;;;;;8.03;4.50;;;15.00;99.90;;;;;;5082430;28;20220;-50
2022/10/24 09:57:12;;;;;;;8.30;4.90;;;15.00;99.90;;;;;;5071427;28;20666;-50
2022/10/24 09:59:44;;;;;;;12.17;4.67;;;14.90;99.90;;;;;;5073074;28;20296;-49
2022/10/24 10:02:23;;;;;;;8.43;4.87;;;15.00;99.90;;;;;;5079841;28;20193;-49
2022/10/24 10:05:08;;;;;;;5.20;4.30;;;15.10;99.90;;;;;;5078496;28;20220;-49
2022/10/24 10:07:37;;;;;;;11.87;4.77;;;15.20;99.90;;;;;;5081241;28;20351;-49
2022/10/24 10:10:06;;;;;;;3.33;2.63;;;15.20;99.90;;;;;;5086235;28;20674;-50
2022/10/24 10:12:36;;;;;;;3.63;3.33;;;15.20;99.90;;;;;;5070637;28;20262;-49
2022/10/24 10:15:18;;;;;;;1.83;1.60;;;15.20;99.90;;;;;;5087518;28;20786;-50
2022/10/24 10:17:50;;;;;;;2.30;1.20;;;15.20;99.90;;;;;;5089561;28;20234;-50
2022/10/24 10:20:24;;;;;;;1.50;1.40;;;15.10;99.90;;;;;;5089196;28;20258;-49
2022/10/24 10:22:51;;;;;;;2.97;1.13;;;15.10;99.90;;;;;;5088004;28;20254;-49
2022/10/24 10:25:30;;;;;;;5.60;2.37;;;15.10;99.90;;;;;;5078404;28;20274;-49
2022/10/24 10:27:58;;;;;;;2.90;2.57;;;15.00;99.90;;;;;;5081692;28;20270;-49
2022/10/24 10:30:26;;;;;;;7.93;5.17;;;15.00;99.90;;;;;;5078573;28;20630;-49
2022/10/24 10:33:05;;;;;;;6.67;4.23;;;15.00;99.90;;;;;;5083001;28;20347;-49
2022/10/24 10:35:39;;;;;;;13.30;4.93;;;15.10;99.90;;;;;;5075137;28;20258;-50
2022/10/24 10:38:19;;;;;;;11.20;4.27;;;15.10;99.90;;;;;;5076316;28;20625;-50
2022/10/24 10:40:49;;;;;;;5.83;4.43;;;15.10;99.90;;;;;;5090570;28;20204;-51
2022/10/24 10:43:29;;;;;;;8.23;4.47;;;15.10;99.90;;;;;;5081397;28;20189;-50
2022/10/24 10:46:13;;;;;;;3.63;3.30;;;15.10;99.90;;;;;;5075633;28;20266;-51
2022/10/24 10:48:56;;;;;;;3.60;2.00;;;15.10;99.90;;;;;;5074749;28;20204;-51
2022/10/24 10:51:35;;;;;;;3.17;2.87;;;15.10;99.90;;;;;;5074848;28;20205;-51
2022/10/24 10:54:12;;;;;;;6.97;3.30;;;15.00;99.90;;;;;;5085609;28;20270;-51
2022/10/24 10:56:48;;;;;;;6.07;3.13;;;15.00;99.90;;;;;;5084773;28;20262;-51
2022/10/24 10:59:28;;;;;;;7.27;2.70;;;15.00;99.90;;;;;;5093146;28;20254;-51
2022/10/24 11:02:03;;;;;;;4.73;3.10;;;14.90;99.90;;;;;;5082746;28;20204;-51
2022/10/24 11:04:37;;;;;;;14.27;3.67;;;14.90;99.90;;;;;;5082573;28;20232;-51
2022/10/24 11:07:16;;;;;;;5.07;3.10;;;14.80;99.90;;;;;;5086634;28;20517;-51
2022/10/24 11:09:46;;;;;;;5.80;3.30;;;14.80;99.90;;;;;;5094709;28;20628;-51
2022/10/24 11:12:19;;;;;;;4.30;1.77;;;14.80;99.90;;;;;;5093548;28;20715;-52
2022/10/24 11:14:51;;;;;;;5.53;1.37;;;14.70;99.90;;;;;;5091941;28;20220;-51
2022/10/24 11:17:23;;;;;;;3.07;1.53;;;14.70;99.90;;;;;;5080338;28;20847;-51
2022/10/24 11:20:07;;;;;;;2.77;2.17;;;14.60;99.90;;;;;;5074064;28;20266;-52
2022/10/24 11:22:40;;;;;;;4.67;1.97;;;14.60;99.90;;;;;;5074028;28;20260;-51
2022/10/24 11:25:18;;;;;;;2.10;0.90;;;14.60;99.90;;;;;;5079266;28;20224;-52
2022/10/24 11:27:52;;;;;;;2.20;0.83;;;14.50;99.90;;;;;;5082222;28;20196;-52
2022/10/24 11:30:21;;;;;;;2.27;1.10;;;14.30;99.90;;;;;;5084076;28;20255;-52
2022/10/24 11:32:54;;;;;;;2.10;1.90;;;14.20;99.90;;;;;;5092227;28;20265;-52
2022/10/24 11:35:28;;;;;;;1.43;0.97;;;14.20;99.90;;;;;;5092727;28;20220;-51
2022/10/24 11:37:59;;;;;;;1.90;1.10;;;14.20;99.90;;;;;;5082714;28;20291;-52
2022/10/24 11:40:29;;;;;;;3.73;1.07;;;14.20;99.90;;;;;;5073890;28;20201;-52
2022/10/24 11:43:02;;;;;;;1.27;1.10;;;14.20;99.90;;;;;;5073689;28;20201;-51
2022/10/24 11:45:34;;;;;;;2.13;1.00;;;14.20;99.90;;;;;;5078611;28;20197;-51
2022/10/24 11:48:12;;;;;;;5.20;1.60;;;14.20;99.90;;;;;;5093963;28;20204;-51
2022/10/24 11:50:43;;;;;;;0.87;0.87;;;14.10;99.90;;;;;;5093787;28;20291;-51
2022/10/24 11:53:22;;;;;;;1.10;0.90;;;14.20;99.90;;;;;;5093530;28;20285;-51
2022/10/24 11:55:56;;;;;;;2.63;1.10;;;14.20;99.90;;;;;;5089589;28;20230;-51
2022/10/24 11:58:27;;;;;;;3.27;1.00;;;14.10;99.90;;;;;;5080739;28;20196;-50
2022/10/24 12:01:20;;;;;;;2.27;1.67;;;14.20;99.90;;;;;;5083907;28;20238;-52
2022/10/24 12:04:18;;;;;;;3.10;1.10;;;14.30;99.90;;;;;;5073116;28;20271;-51
2022/10/24 12:07:21;;;;;;;1.20;1.10;;;14.30;99.90;;;;;;5055239;28;20878;-51
2022/10/24 12:10:17;;;;;;;1.33;0.83;;;14.30;99.90;;;;;;5093407;28;20272;-50
2022/10/24 12:13:03;;;;;;;2.83;0.80;;;14.30;99.90;;;;;;5089084;28;20625;-51
2022/10/24 12:15:45;;;;;;;1.93;1.10;;;14.30;99.90;;;;;;5091293;28;20242;-51
2022/10/24 12:18:24;;;;;;;2.47;1.30;;;14.30;99.90;;;;;;5087386;28;20201;-51
2022/10/24 12:20:54;;;;;;;3.37;0.67;;;14.30;99.90;;;;;;5084682;28;20199;-51
2022/10/24 12:23:26;;;;;;;1.07;0.73;;;14.30;99.90;;;;;;5080326;28;20717;-51
2022/10/24 12:26:04;;;;;;;3.43;0.90;;;14.30;99.90;;;;;;5090063;28;20253;-51
2022/10/24 12:28:31;;;;;;;4.83;0.80;;;14.30;99.90;;;;;;5087805;28;20214;-51
2022/10/24 12:31:19;;;;;;;2.00;0.87;;;14.30;99.90;;;;;;5092928;28;20201;-51
2022/10/24 12:34:04;;;;;;;1.37;0.77;;;14.30;99.90;;;;;;5092725;28;20305;-51
2022/10/24 12:37:10;;;;;;;1.10;1.00;;;14.30;99.90;;;;;;5083657;28;20226;-51
2022/10/24 12:39:39;;;;;;;1.27;0.70;;;14.30;99.90;;;;;;5082374;28;20275;-51
2022/10/24 12:42:12;;;;;;;1.57;0.80;;;14.20;99.90;;;;;;5086042;28;20758;-51
2022/10/24 12:44:45;;;;;;;4.30;0.70;;;14.20;99.90;;;;;;5083476;28;20334;-51
2022/10/24 12:47:42;;;;;;;3.40;0.53;;;14.20;99.90;;;;;;5087553;28;20250;-51
2022/10/24 12:50:56;;;;;;;0.63;0.60;;;14.20;99.90;;;;;;5071748;28;20255;-51
2022/10/24 12:53:54;;;;;;;2.23;0.77;;;14.30;99.90;;;;;;5071931;28;20744;-51
2022/10/24 12:56:21;;;;;;;1.47;0.90;;;14.30;99.90;;;;;;5081913;28;20535;-51
2022/10/24 12:59:02;;;;;;;1.27;1.00;;;14.30;99.90;;;;;;5088826;28;20210;-52
2022/10/24 13:01:36;;;;;;;1.20;0.40;;;14.20;99.90;;;;;;5087966;28;20253;-51